createdAt,value
2022-10-18T00:08:06.903Z,12.60
2022-10-18T00:18:09.147Z,11.32
2022-10-18T00:28:11.158Z,12.20
2022-10-18T00:38:16.379Z,10.02
2022-10-18T00:48:19.533Z,11.80
2022-10-18T00:58:24.780Z,11.75
2022-10-18T01:08:35.242Z,12.43
2022-10-18T01:18:52.130Z,12.30
2022-10-18T01:29:15.802Z,9.45
2022-10-18T01:39:29.667Z,10.30
2022-10-18T01:49:33.522Z,8.27
2022-10-18T01:59:47.257Z,11.07
2022-10-18T02:10:00.274Z,8.38
2022-10-18T02:20:05.794Z,14.50
2022-10-18T02:30:10.514Z,11.43
2022-10-18T02:40:12.711Z,8.18
2022-10-18T02:50:16.609Z,8.70
2022-10-18T03:00:18.801Z,8.98
2022-10-18T03:10:23.849Z,10.10
2022-10-18T03:20:29.150Z,7.80
2022-10-18T03:30:32.632Z,9.32
2022-10-18T03:40:36.984Z,9.50
2022-10-18T03:50:41.419Z,11.63
2022-10-18T04:00:54.739Z,9.13
2022-10-18T04:11:01.604Z,7.05
2022-10-18T04:21:03.666Z,7.93
2022-10-18T04:31:08.263Z,7.05
2022-10-18T04:41:12.297Z,10.70
2022-10-18T04:51:14.307Z,9.35
2022-10-18T05:01:19.182Z,8.13
2022-10-18T05:11:25.919Z,9.13
2022-10-18T05:21:33.296Z,8.50
2022-10-18T05:31:38.301Z,7.88
2022-10-18T05:41:42.819Z,9.05
2022-10-18T05:51:47.076Z,12.48
2022-10-18T06:01:53.574Z,15.55
2022-10-18T06:12:01.008Z,10.63
2022-10-18T06:22:05.442Z,9.40
2022-10-18T06:32:10.576Z,9.93
2022-10-18T06:42:19.179Z,10.45
2022-10-18T06:52:25.888Z,9.73
2022-10-18T07:02:28.366Z,9.38
2022-10-18T07:12:31.662Z,10.73
2022-10-18T07:22:34.569Z,11.50
2022-10-18T07:32:41.087Z,11.65
2022-10-18T07:42:45.695Z,10.40
2022-10-18T07:52:48.151Z,10.30
2022-10-18T08:02:50.202Z,10.55
2022-10-18T08:12:54.770Z,10.68
2022-10-18T08:23:00.091Z,9.68
2022-10-18T08:33:04.585Z,11.32
2022-10-18T08:43:26.867Z,12.23
2022-10-18T08:53:43.758Z,13.65
2022-10-18T09:04:15.150Z,13.25
2022-10-18T09:14:23.630Z,13.20
2022-10-18T09:24:36.417Z,13.13
2022-10-18T09:34:55.473Z,16.60
2022-10-18T09:45:16.846Z,12.88
2022-10-18T09:55:26.960Z,16.15
2022-10-18T10:05:35.347Z,16.85
2022-10-18T10:15:40.520Z,14.77
2022-10-18T10:25:56.184Z,15.48
2022-10-18T10:36:03.383Z,17.08
2022-10-18T10:46:19.899Z,17.52
2022-10-18T10:56:29.395Z,22.00
2022-10-18T11:06:45.323Z,19.33
2022-10-18T11:17:21.195Z,17.85
2022-10-18T11:27:38.712Z,21.50
2022-10-18T11:38:05.933Z,20.17
2022-10-18T11:48:48.142Z,19.38
2022-10-18T11:58:58.442Z,18.33
2022-10-18T12:09:24.494Z,24.20
2022-10-18T12:19:33.182Z,19.60
2022-10-18T12:29:50.215Z,26.10
2022-10-18T12:40:09.747Z,20.75
2022-10-18T12:50:57.798Z,21.00
2022-10-18T13:01:02.470Z,28.73
2022-10-18T13:11:09.172Z,19.40
2022-10-18T13:21:44.749Z,22.25
2022-10-18T13:32:02.057Z,20.17
2022-10-18T13:42:04.433Z,26.50
2022-10-18T13:52:28.254Z,21.63
2022-10-18T14:03:12.868Z,22.67
2022-10-18T14:13:38.448Z,25.10
2022-10-18T14:23:44.791Z,20.95
2022-10-18T14:33:58.002Z,25.50
2022-10-18T14:44:35.768Z,19.63
2022-10-18T14:54:40.385Z,19.92
2022-10-18T15:04:44.974Z,24.90
2022-10-18T15:14:52.494Z,22.90
2022-10-18T15:25:33.929Z,6.65
2022-10-18T15:35:38.912Z,2.45
2022-10-18T15:56:03.047Z,7.97
2022-10-18T16:06:12.277Z,8.00
2022-10-18T16:16:27.202Z,12.23
2022-10-18T16:26:32.368Z,9.70
2022-10-18T16:36:39.941Z,14.65
2022-10-18T16:46:52.426Z,11.57
2022-10-18T16:56:59.060Z,16.05
2022-10-18T17:07:04.931Z,15.07
2022-10-18T17:17:07.118Z,18.52
2022-10-18T17:27:10.606Z,19.27
2022-10-18T17:37:13.867Z,22.13
2022-10-18T17:47:15.896Z,10.93
2022-10-18T17:57:40.904Z,7.30
2022-10-18T18:07:56.123Z,5.95
2022-10-18T18:17:58.499Z,7.28
2022-10-18T18:28:06.595Z,12.13
2022-10-18T18:38:09.588Z,9.85
2022-10-18T18:48:19.089Z,7.53
2022-10-18T18:58:27.830Z,10.45
2022-10-18T19:08:29.810Z,10.93
2022-10-18T19:18:36.016Z,6.93
2022-10-18T19:28:41.007Z,9.80
2022-10-18T19:38:45.495Z,14.60
2022-10-18T19:48:54.258Z,12.02
2022-10-18T19:59:04.282Z,11.18
2022-10-18T20:09:17.685Z,12.10
2022-10-18T20:19:22.598Z,13.02
2022-10-18T20:29:27.009Z,11.43
2022-10-18T20:39:31.401Z,8.63
2022-10-18T20:49:33.423Z,12.63
2022-10-18T20:59:35.996Z,9.43
2022-10-18T21:09:38.108Z,12.80
2022-10-18T21:19:40.184Z,17.08
2022-10-18T21:29:42.339Z,20.15
2022-10-18T21:39:47.850Z,17.90
2022-10-18T21:49:49.831Z,23.45
2022-10-18T21:59:56.619Z,24.27
2022-10-18T22:09:59.633Z,27.20
2022-10-18T22:20:01.768Z,23.40
2022-10-18T22:30:03.980Z,23.50
2022-10-18T22:40:06.708Z,24.85
2022-10-18T22:50:09.330Z,25.15
2022-10-18T23:00:18.593Z,27.40
2022-10-18T23:10:23.005Z,24.02
2022-10-18T23:20:30.601Z,27.52
2022-10-18T23:30:37.109Z,24.08
2022-10-18T23:40:46.597Z,29.35
2022-10-18T23:50:48.693Z,23.25
